createdAt,value
2024-01-06T00:01:17.863Z,4.83
2024-01-06T00:03:45.087Z,6.07
2024-01-06T00:06:15.918Z,4.93
2024-01-06T00:08:43.055Z,5.27
2024-01-06T00:11:10.728Z,5.57
2024-01-06T00:13:37.890Z,5.07
2024-01-06T00:16:05.096Z,6.00
2024-01-06T00:18:32.285Z,4.50
2024-01-06T00:20:59.495Z,2.53
2024-01-06T00:23:26.582Z,5.33
2024-01-06T00:25:53.657Z,5.93
2024-01-06T00:28:20.723Z,4.40
2024-01-06T00:30:47.904Z,3.73
2024-01-06T00:33:15.122Z,4.20
2024-01-06T00:35:42.243Z,4.57
2024-01-06T00:38:09.336Z,3.93
2024-01-06T00:40:36.512Z,3.57
2024-01-06T00:43:03.619Z,3.53
2024-01-06T00:45:31.873Z,6.00
2024-01-06T00:47:59.260Z,6.57
2024-01-06T00:50:26.454Z,5.40
2024-01-06T00:52:53.982Z,6.30
2024-01-06T00:55:21.494Z,3.47
2024-01-06T00:57:48.678Z,3.80
2024-01-06T01:00:16.352Z,4.20
2024-01-06T01:02:43.449Z,3.63
2024-01-06T01:05:10.764Z,7.47
2024-01-06T01:07:37.926Z,8.20
2024-01-06T01:10:05.856Z,3.07
2024-01-06T01:12:33.409Z,3.13
2024-01-06T01:15:00.870Z,4.97
2024-01-06T01:17:28.005Z,2.60
2024-01-06T01:19:55.177Z,6.33
2024-01-06T01:22:22.328Z,3.20
2024-01-06T01:24:49.471Z,5.23
2024-01-06T01:27:16.851Z,4.30
2024-01-06T01:29:44.056Z,2.97
2024-01-06T01:32:11.211Z,3.87
2024-01-06T01:34:38.469Z,5.80
2024-01-06T01:37:05.755Z,5.93
2024-01-06T01:39:32.895Z,2.37
2024-01-06T01:42:00.699Z,3.80
2024-01-06T01:44:27.790Z,4.77
2024-01-06T01:46:55.046Z,4.33
2024-01-06T01:49:22.706Z,3.80
2024-01-06T01:51:50.890Z,4.07
2024-01-06T01:54:18.045Z,4.97
2024-01-06T01:56:45.193Z,4.30
2024-01-06T01:59:15.443Z,4.37
2024-01-06T02:01:42.722Z,3.23
2024-01-06T02:04:10.207Z,3.27
2024-01-06T02:06:37.497Z,5.43
2024-01-06T02:09:04.604Z,5.27
2024-01-06T02:11:31.747Z,6.73
2024-01-06T02:13:58.779Z,3.03
2024-01-06T02:16:25.847Z,4.03
2024-01-06T02:18:53.070Z,6.80
2024-01-06T02:21:23.863Z,6.03
2024-01-06T02:23:51.105Z,5.97
2024-01-06T02:26:18.370Z,3.37
2024-01-06T02:28:49.052Z,4.13
2024-01-06T02:31:16.483Z,3.30
2024-01-06T02:33:43.816Z,5.27
2024-01-06T02:36:10.973Z,3.90
2024-01-06T02:38:38.056Z,2.50
2024-01-06T02:41:05.137Z,5.00
2024-01-06T02:43:32.217Z,4.73
2024-01-06T02:45:59.500Z,3.83
2024-01-06T02:48:26.759Z,5.53
2024-01-06T02:50:54.003Z,6.43
2024-01-06T02:53:21.152Z,5.90
2024-01-06T02:55:48.232Z,4.80
2024-01-06T02:58:15.374Z,6.60
2024-01-06T03:00:42.491Z,9.53
2024-01-06T03:03:09.727Z,3.73
2024-01-06T03:05:38.160Z,6.30
2024-01-06T03:08:06.026Z,5.03
2024-01-06T03:10:33.091Z,6.03
2024-01-06T03:13:00.187Z,4.03
2024-01-06T03:15:27.784Z,5.97
2024-01-06T03:17:55.018Z,4.73
2024-01-06T03:20:22.173Z,3.33
2024-01-06T03:22:49.341Z,6.27
2024-01-06T03:25:16.500Z,5.37
2024-01-06T03:27:44.659Z,7.30
2024-01-06T03:30:12.203Z,6.70
2024-01-06T03:32:42.701Z,4.23
2024-01-06T03:35:12.231Z,3.90
2024-01-06T03:37:39.573Z,5.13
2024-01-06T03:40:07.362Z,3.30
2024-01-06T03:42:34.553Z,4.37
2024-01-06T03:45:01.634Z,3.53
2024-01-06T03:47:28.757Z,4.50
2024-01-06T03:49:55.875Z,2.80
2024-01-06T03:52:23.994Z,3.97
2024-01-06T03:54:51.242Z,3.97
2024-01-06T03:57:18.375Z,7.57
2024-01-06T03:59:45.462Z,5.60
2024-01-06T04:02:12.710Z,3.57
2024-01-06T04:04:39.808Z,4.67
2024-01-06T04:07:07.981Z,3.63
2024-01-06T04:09:35.190Z,3.40
2024-01-06T04:12:02.771Z,5.47
2024-01-06T04:14:29.887Z,4.83
2024-01-06T04:16:57.814Z,5.70
2024-01-06T04:19:25.325Z,3.13
2024-01-06T04:21:52.657Z,3.93
2024-01-06T04:24:20.344Z,2.33
2024-01-06T04:26:47.606Z,6.90
2024-01-06T04:29:14.669Z,3.80
2024-01-06T04:31:42.955Z,4.17
2024-01-06T04:34:10.282Z,3.33
2024-01-06T04:36:37.518Z,2.63
2024-01-06T04:39:04.667Z,5.63
2024-01-06T04:41:34.967Z,2.80
2024-01-06T04:44:05.401Z,5.47
2024-01-06T04:46:37.694Z,3.80
2024-01-06T04:49:08.035Z,5.07
2024-01-06T04:51:38.366Z,4.87
2024-01-06T04:54:08.791Z,4.80
2024-01-06T04:56:36.931Z,6.13
2024-01-06T04:59:04.238Z,3.77
2024-01-06T05:01:31.612Z,7.30
2024-01-06T05:04:00.039Z,5.73
2024-01-06T05:06:27.251Z,5.83
2024-01-06T05:08:54.345Z,2.37
2024-01-06T05:11:21.438Z,3.77
2024-01-06T05:13:48.516Z,2.43
2024-01-06T05:16:15.645Z,4.23
2024-01-06T05:18:42.895Z,4.63
2024-01-06T05:21:10.082Z,5.07
2024-01-06T05:23:37.184Z,4.40
2024-01-06T05:26:04.250Z,4.90
2024-01-06T05:28:31.731Z,8.07
2024-01-06T05:30:59.219Z,3.47
2024-01-06T05:33:26.424Z,3.37
2024-01-06T05:35:53.581Z,4.50
2024-01-06T05:38:20.667Z,5.27
2024-01-06T05:40:47.733Z,3.17
2024-01-06T05:43:14.801Z,7.43
2024-01-06T05:45:44.939Z,2.43
2024-01-06T05:48:12.636Z,3.53
2024-01-06T05:50:40.826Z,3.63
2024-01-06T05:53:07.957Z,4.43
2024-01-06T05:55:35.101Z,5.73
2024-01-06T05:58:02.257Z,5.87
2024-01-06T06:00:32.478Z,5.47
2024-01-06T06:02:59.818Z,5.77
2024-01-06T06:05:27.465Z,5.50
2024-01-06T06:07:55.596Z,6.37
2024-01-06T06:10:23.019Z,5.47
2024-01-06T06:12:50.490Z,5.27
2024-01-06T06:15:17.679Z,4.93
2024-01-06T06:17:45.193Z,5.50
2024-01-06T06:20:12.444Z,4.37
2024-01-06T06:22:39.570Z,5.97
2024-01-06T06:25:06.995Z,3.33
2024-01-06T06:27:34.150Z,5.90
2024-01-06T06:30:01.277Z,5.23
2024-01-06T06:32:28.437Z,5.33
2024-01-06T06:34:55.613Z,5.17
2024-01-06T06:37:22.711Z,5.40
2024-01-06T06:39:50.440Z,3.00
2024-01-06T06:42:17.574Z,3.83
2024-01-06T06:44:44.633Z,5.10
2024-01-06T06:47:11.710Z,2.50
2024-01-06T06:49:38.878Z,4.87
2024-01-06T06:52:08.095Z,5.27
2024-01-06T06:54:35.296Z,5.90
2024-01-06T06:57:02.420Z,3.17
2024-01-06T06:59:29.488Z,3.93
2024-01-06T07:01:56.679Z,5.03
2024-01-06T07:04:24.681Z,4.00
2024-01-06T07:06:51.859Z,6.60
2024-01-06T07:09:21.065Z,4.10
2024-01-06T07:11:49.813Z,4.07
2024-01-06T07:14:16.888Z,2.90
2024-01-06T07:16:43.952Z,3.30
2024-01-06T07:19:12.020Z,5.00
2024-01-06T07:21:39.193Z,4.27
2024-01-06T07:24:06.552Z,4.27
2024-01-06T07:26:33.642Z,4.67
2024-01-06T07:29:00.742Z,4.40
2024-01-06T07:31:27.900Z,3.37
2024-01-06T07:33:55.040Z,3.40
2024-01-06T07:36:23.604Z,4.57
2024-01-06T07:38:50.703Z,2.77
2024-01-06T07:41:17.881Z,4.60
2024-01-06T07:43:45.292Z,4.57
2024-01-06T07:46:12.361Z,2.83
2024-01-06T07:48:39.797Z,2.53
2024-01-06T07:51:06.949Z,3.50
2024-01-06T07:53:34.453Z,2.97
2024-01-06T07:56:01.660Z,3.13
2024-01-06T07:58:29.760Z,4.53
2024-01-06T08:00:57.016Z,3.27
2024-01-06T08:03:24.514Z,2.83
2024-01-06T08:05:51.656Z,4.53
2024-01-06T08:08:19.759Z,3.57
2024-01-06T08:10:46.892Z,4.30
2024-01-06T08:13:14.134Z,3.17
2024-01-06T08:15:41.530Z,2.70
2024-01-06T08:18:08.755Z,2.83
2024-01-06T08:20:35.954Z,3.50
2024-01-06T08:23:03.090Z,4.77
2024-01-06T08:25:30.224Z,2.90
2024-01-06T08:27:57.640Z,2.20
2024-01-06T08:30:25.128Z,4.38
2024-01-06T08:32:53.388Z,2.43
2024-01-06T08:35:20.606Z,6.90
2024-01-06T08:37:47.654Z,5.97
2024-01-06T08:40:14.719Z,4.77
2024-01-06T08:42:41.828Z,5.13
2024-01-06T08:45:09.101Z,4.57
2024-01-06T08:47:36.255Z,3.90
2024-01-06T08:50:03.651Z,2.00
2024-01-06T08:52:30.732Z,3.67
2024-01-06T08:54:57.953Z,2.60
2024-01-06T08:57:25.105Z,5.10
2024-01-06T08:59:52.222Z,3.53
2024-01-06T09:02:19.315Z,4.03
2024-01-06T09:04:46.392Z,3.20
2024-01-06T09:07:13.517Z,2.77
2024-01-06T09:09:40.592Z,3.22
2024-01-06T09:12:07.842Z,2.40
2024-01-06T09:14:35.051Z,2.43
2024-01-06T09:17:02.113Z,4.13
2024-01-06T09:19:29.589Z,2.70
2024-01-06T09:21:56.830Z,2.80
2024-01-06T09:24:24.093Z,2.40
2024-01-06T09:26:52.472Z,2.40
2024-01-06T09:29:19.567Z,2.57
2024-01-06T09:31:46.905Z,2.17
2024-01-06T09:34:14.195Z,1.90
2024-01-06T09:36:41.402Z,2.03
2024-01-06T09:39:09.352Z,2.57
2024-01-06T09:41:36.551Z,3.43
2024-01-06T09:44:03.739Z,2.70
2024-01-06T09:46:31.398Z,3.00
2024-01-06T09:48:59.588Z,2.43
2024-01-06T09:51:28.141Z,3.80
2024-01-06T09:54:00.091Z,2.67
2024-01-06T09:56:27.934Z,2.20
2024-01-06T09:58:55.586Z,3.87
2024-01-06T10:01:22.829Z,2.40
2024-01-06T10:03:50.323Z,2.77
2024-01-06T10:06:17.927Z,2.57
2024-01-06T10:08:45.872Z,2.40
2024-01-06T10:11:12.993Z,2.30
2024-01-06T10:13:40.050Z,5.40
2024-01-06T10:16:07.671Z,4.33
2024-01-06T10:18:36.740Z,2.00
2024-01-06T10:21:07.732Z,4.67
2024-01-06T10:23:35.254Z,2.17
2024-01-06T10:26:05.245Z,2.75
2024-01-06T10:28:33.813Z,3.57
2024-01-06T10:31:01.345Z,2.57
2024-01-06T10:33:28.785Z,1.90
2024-01-06T10:35:56.772Z,2.13
2024-01-06T10:38:23.997Z,2.27
2024-01-06T10:40:58.130Z,2.97
2024-01-06T10:43:30.184Z,2.83
2024-01-06T10:46:00.175Z,2.33
2024-01-06T10:48:27.775Z,2.33
2024-01-06T10:50:56.700Z,2.63
2024-01-06T10:53:24.019Z,2.40
2024-01-06T10:55:55.420Z,2.77
2024-01-06T10:58:23.962Z,3.07
2024-01-06T11:00:51.332Z,2.37
2024-01-06T11:03:19.525Z,2.60
2024-01-06T11:05:46.809Z,3.33
2024-01-06T11:08:14.047Z,2.80
2024-01-06T11:10:41.758Z,3.80
2024-01-06T11:13:13.278Z,2.93
2024-01-06T11:15:50.723Z,2.77
2024-01-06T11:18:35.231Z,2.80
2024-01-06T11:21:18.810Z,2.83
2024-01-06T11:23:46.212Z,4.90
2024-01-06T11:26:15.875Z,3.47
2024-01-06T11:28:49.026Z,3.37
2024-01-06T11:31:17.183Z,3.73
2024-01-06T11:33:44.990Z,5.00
2024-01-06T11:36:12.310Z,3.10
2024-01-06T11:38:40.239Z,3.70
2024-01-06T11:41:13.678Z,4.77
2024-01-06T11:43:41.669Z,4.17
2024-01-06T11:46:10.194Z,3.30
2024-01-06T11:48:37.845Z,3.70
2024-01-06T11:51:05.756Z,4.77
2024-01-06T11:53:33.380Z,3.63
2024-01-06T11:56:01.711Z,3.83
2024-01-06T11:58:29.760Z,3.73
2024-01-06T12:01:00.352Z,3.80
2024-01-06T12:03:28.114Z,5.50
2024-01-06T12:06:02.734Z,3.87
2024-01-06T12:08:30.428Z,4.40
2024-01-06T12:11:04.455Z,4.63
2024-01-06T12:13:31.647Z,7.63
2024-01-06T12:15:58.814Z,4.50
2024-01-06T12:18:26.995Z,5.13
2024-01-06T12:20:54.819Z,4.33
2024-01-06T12:23:28.954Z,4.70
2024-01-06T12:25:56.537Z,5.03
2024-01-06T12:28:24.194Z,4.33
2024-01-06T12:30:51.715Z,7.17
2024-01-06T12:33:19.163Z,5.30
2024-01-06T12:35:46.398Z,3.57
2024-01-06T12:38:13.496Z,3.97
2024-01-06T12:40:42.046Z,4.97
2024-01-06T12:43:09.122Z,4.10
2024-01-06T12:45:36.288Z,5.27
2024-01-06T12:48:03.510Z,5.97
2024-01-06T12:50:30.645Z,4.30
2024-01-06T12:52:57.819Z,4.40
2024-01-06T12:55:24.874Z,4.80
2024-01-06T12:57:52.019Z,5.27
2024-01-06T13:00:19.475Z,5.30
2024-01-06T13:02:46.609Z,7.60
2024-01-06T13:05:13.776Z,6.00
2024-01-06T13:07:41.250Z,5.13
2024-01-06T13:10:08.676Z,5.93
2024-01-06T13:12:35.859Z,6.43
2024-01-06T13:15:03.280Z,6.97
2024-01-06T13:17:30.426Z,5.40
2024-01-06T13:19:57.628Z,8.73
2024-01-06T13:22:24.946Z,8.23
2024-01-06T13:24:54.225Z,7.00
2024-01-06T13:27:21.740Z,5.50
2024-01-06T13:29:48.911Z,6.97
2024-01-06T13:32:16.505Z,6.10
2024-01-06T13:34:43.865Z,6.77
2024-01-06T13:37:11.616Z,6.70
2024-01-06T13:39:38.850Z,6.10
2024-01-06T13:42:06.224Z,6.67
2024-01-06T13:44:33.284Z,6.33
2024-01-06T13:47:00.416Z,6.50
2024-01-06T13:49:29.123Z,6.13
2024-01-06T13:51:56.432Z,5.87
2024-01-06T13:54:23.841Z,5.83
2024-01-06T13:56:50.980Z,5.87
2024-01-06T13:59:18.076Z,7.37
2024-01-06T14:01:45.289Z,5.33
2024-01-06T14:04:12.463Z,6.20
2024-01-06T14:06:41.143Z,6.23
2024-01-06T14:09:08.282Z,5.57
2024-01-06T14:11:35.453Z,7.33
2024-01-06T14:14:02.577Z,6.50
2024-01-06T14:16:29.726Z,8.45
2024-01-06T14:18:57.110Z,7.10
2024-01-06T14:21:24.388Z,7.87
2024-01-06T14:23:51.462Z,7.43
2024-01-06T14:26:21.200Z,7.80
2024-01-06T14:28:48.936Z,8.47
2024-01-06T14:31:16.127Z,8.20
2024-01-06T14:33:43.451Z,7.90
2024-01-06T14:36:10.638Z,8.03
2024-01-06T14:38:37.748Z,9.57
2024-01-06T14:41:04.958Z,9.60
2024-01-06T14:43:32.044Z,8.83
2024-01-06T14:45:59.288Z,9.53
2024-01-06T14:48:26.733Z,10.90
2024-01-06T14:50:53.922Z,9.53
2024-01-06T14:53:21.057Z,8.60
2024-01-06T14:55:48.156Z,9.57
2024-01-06T14:58:15.220Z,9.43
2024-01-06T15:00:42.346Z,9.17
2024-01-06T15:03:09.481Z,9.23
2024-01-06T15:05:36.589Z,9.37
2024-01-06T15:08:03.734Z,9.67
2024-01-06T15:10:30.822Z,12.20
2024-01-06T15:12:58.065Z,12.13
2024-01-06T15:15:25.250Z,11.37
2024-01-06T15:17:52.653Z,9.90
2024-01-06T15:20:19.878Z,11.87
2024-01-06T15:22:46.978Z,10.53
2024-01-06T15:25:14.326Z,13.73
2024-01-06T15:27:41.731Z,12.83
2024-01-06T15:30:09.967Z,13.20
2024-01-06T15:32:37.817Z,11.33
2024-01-06T15:35:05.381Z,11.00
2024-01-06T15:37:32.655Z,12.47
2024-01-06T15:39:59.968Z,10.93
2024-01-06T15:42:27.613Z,11.57
2024-01-06T15:44:54.837Z,13.37
2024-01-06T15:47:22.007Z,12.13
2024-01-06T15:49:49.224Z,15.27
2024-01-06T15:52:16.627Z,12.80
2024-01-06T15:54:43.883Z,13.57
2024-01-06T15:57:11.071Z,12.33
2024-01-06T15:59:38.258Z,13.33
2024-01-06T16:02:05.316Z,14.30
2024-01-06T16:04:32.485Z,16.07
2024-01-06T16:06:59.697Z,14.37
2024-01-06T16:09:27.303Z,11.50
2024-01-06T16:11:58.231Z,12.70
2024-01-06T16:14:26.650Z,13.23
2024-01-06T16:16:54.179Z,14.80
2024-01-06T16:19:21.589Z,15.47
2024-01-06T16:21:54.479Z,16.53
2024-01-06T16:24:27.781Z,15.57
2024-01-06T16:26:54.912Z,15.17
2024-01-06T16:29:22.328Z,15.97
2024-01-06T16:31:49.623Z,15.50
2024-01-06T16:34:17.148Z,17.20
2024-01-06T16:36:44.390Z,16.13
2024-01-06T16:39:11.539Z,14.40
2024-01-06T16:41:38.627Z,17.73
2024-01-06T16:44:06.535Z,18.13
2024-01-06T16:46:33.598Z,18.57
2024-01-06T16:49:00.762Z,18.17
2024-01-06T16:51:27.942Z,17.37
2024-01-06T16:53:55.032Z,17.23
2024-01-06T16:56:22.084Z,15.20
2024-01-06T16:58:49.246Z,16.73
2024-01-06T17:01:17.267Z,18.43
2024-01-06T17:03:44.683Z,16.77
2024-01-06T17:06:13.074Z,16.20
2024-01-06T17:08:41.780Z,14.40
2024-01-06T17:11:08.908Z,14.43
2024-01-06T17:13:36.008Z,14.43
2024-01-06T17:16:03.190Z,14.90
2024-01-06T17:18:30.471Z,13.53
2024-01-06T17:20:57.695Z,16.13
2024-01-06T17:23:25.722Z,16.27
2024-01-06T17:25:52.894Z,16.03
2024-01-06T17:28:19.980Z,16.60
2024-01-06T17:30:47.113Z,17.77
2024-01-06T17:33:14.718Z,20.17
2024-01-06T17:35:41.938Z,16.97
2024-01-06T17:38:09.144Z,18.37
2024-01-06T17:40:36.245Z,17.07
2024-01-06T17:43:03.406Z,17.93
2024-01-06T17:45:31.021Z,22.03
2024-01-06T17:47:58.522Z,19.48
2024-01-06T17:50:25.628Z,22.00
2024-01-06T17:52:53.580Z,19.67
2024-01-06T17:55:21.367Z,21.20
2024-01-06T17:57:48.542Z,20.90
2024-01-06T18:00:15.810Z,22.53
2024-01-06T18:02:44.805Z,24.83
2024-01-06T18:05:12.386Z,23.93
2024-01-06T18:07:39.614Z,22.87
2024-01-06T18:10:09.682Z,25.27
2024-01-06T18:12:38.272Z,29.63
2024-01-06T18:15:05.755Z,23.17
2024-01-06T18:17:36.319Z,25.23
2024-01-06T18:20:04.864Z,22.83
2024-01-06T18:22:32.307Z,24.25
2024-01-06T18:24:59.536Z,26.03
2024-01-06T18:27:26.678Z,25.23
2024-01-06T18:29:53.805Z,26.97
2024-01-06T18:32:20.986Z,24.73
2024-01-06T18:34:48.269Z,27.50
2024-01-06T18:37:15.585Z,26.90
2024-01-06T18:39:42.937Z,28.33
2024-01-06T18:42:10.480Z,24.67
2024-01-06T18:44:37.549Z,24.73
2024-01-06T18:47:09.561Z,25.43
2024-01-06T18:49:37.333Z,27.40
2024-01-06T18:52:04.660Z,27.67
2024-01-06T18:54:35.404Z,26.03
2024-01-06T18:57:08.935Z,24.80
2024-01-06T18:59:36.070Z,28.63
2024-01-06T19:02:04.272Z,25.10
2024-01-06T19:04:31.336Z,21.63
2024-01-06T19:06:58.830Z,20.63
2024-01-06T19:09:27.364Z,23.73
2024-01-06T19:11:54.562Z,24.53
2024-01-06T19:14:21.618Z,23.43
2024-01-06T19:16:48.891Z,21.83
2024-01-06T19:19:18.722Z,23.67
2024-01-06T19:21:48.061Z,23.67
2024-01-06T19:24:23.825Z,21.70
2024-01-06T19:26:55.785Z,22.90
2024-01-06T19:29:23.383Z,23.27
2024-01-06T19:31:50.551Z,28.20
2024-01-06T19:34:17.807Z,24.47
2024-01-06T19:36:45.053Z,27.33
2024-01-06T19:39:12.168Z,22.97
2024-01-06T19:41:39.246Z,25.93
2024-01-06T19:44:06.356Z,25.50
2024-01-06T19:46:33.923Z,21.60
2024-01-06T19:49:02.984Z,25.07
2024-01-06T19:51:30.440Z,26.17
2024-01-06T19:53:57.700Z,22.57
2024-01-06T19:56:25.299Z,28.27
2024-01-06T19:58:52.419Z,25.20
2024-01-06T20:01:19.666Z,26.67
2024-01-06T20:03:46.966Z,27.93
2024-01-06T20:06:15.183Z,27.93
2024-01-06T20:08:42.302Z,28.23
2024-01-06T20:11:09.378Z,28.23
2024-01-06T20:13:36.463Z,27.80
2024-01-06T20:16:05.120Z,29.83
2024-01-06T20:18:32.769Z,28.93
2024-01-06T20:21:00.384Z,28.83
2024-01-06T20:23:27.421Z,33.67
2024-01-06T20:25:54.473Z,30.17
2024-01-06T20:28:21.529Z,34.10
2024-01-06T20:30:48.820Z,34.95
2024-01-06T20:33:16.813Z,32.33
2024-01-06T20:35:44.882Z,29.83
2024-01-06T20:38:12.028Z,31.90
2024-01-06T20:40:39.331Z,32.03
2024-01-06T20:43:08.624Z,32.17
2024-01-06T20:45:35.811Z,28.27
2024-01-06T20:48:05.424Z,29.63
2024-01-06T20:50:32.557Z,31.10
2024-01-06T20:52:59.852Z,30.33
2024-01-06T20:55:26.925Z,28.83
2024-01-06T20:57:54.035Z,32.30
2024-01-06T21:00:21.329Z,27.77
2024-01-06T21:02:48.557Z,30.03
2024-01-06T21:05:15.730Z,34.17
2024-01-06T21:07:43.753Z,29.67
2024-01-06T21:10:11.856Z,29.40
2024-01-06T21:12:39.056Z,27.80
2024-01-06T21:15:06.257Z,28.30
2024-01-06T21:17:33.382Z,34.67
2024-01-06T21:20:02.366Z,32.97
2024-01-06T21:22:29.460Z,29.20
2024-01-06T21:24:57.544Z,27.97
2024-01-06T21:27:25.566Z,30.70
2024-01-06T21:29:52.756Z,27.57
2024-01-06T21:32:19.799Z,30.03
2024-01-06T21:34:46.963Z,30.47
2024-01-06T21:37:14.207Z,29.40
2024-01-06T21:39:41.331Z,29.80
2024-01-06T21:42:08.454Z,33.27
2024-01-06T21:44:36.095Z,30.57
2024-01-06T21:47:04.425Z,31.00
2024-01-06T21:49:31.994Z,35.33
2024-01-06T21:51:59.295Z,28.37
2024-01-06T21:54:26.459Z,32.67
2024-01-06T21:56:53.577Z,27.93
2024-01-06T21:59:20.666Z,27.93
2024-01-06T22:01:48.007Z,31.43
2024-01-06T22:04:15.300Z,28.07
2024-01-06T22:06:42.426Z,32.07
2024-01-06T22:09:12.571Z,27.53
2024-01-06T22:11:40.945Z,28.77
2024-01-06T22:14:08.078Z,25.60
2024-01-06T22:16:35.364Z,24.93
2024-01-06T22:19:05.019Z,23.57
2024-01-06T22:21:32.509Z,28.17
2024-01-06T22:24:00.467Z,26.27
2024-01-06T22:26:29.274Z,27.37
2024-01-06T22:28:56.395Z,24.83
2024-01-06T22:31:23.801Z,24.60
2024-01-06T22:33:51.083Z,25.40
2024-01-06T22:36:18.659Z,26.73
2024-01-06T22:38:54.837Z,27.10
2024-01-06T22:41:23.719Z,26.13
2024-01-06T22:43:50.795Z,27.13
2024-01-06T22:46:18.698Z,24.10
2024-01-06T22:48:45.987Z,26.53
2024-01-06T22:51:13.272Z,25.67
2024-01-06T22:53:42.815Z,24.23
2024-01-06T22:56:13.016Z,27.07
2024-01-06T22:58:40.985Z,27.30
2024-01-06T23:01:08.283Z,28.07
2024-01-06T23:03:35.686Z,23.67
2024-01-06T23:06:06.308Z,27.77
2024-01-06T23:08:33.424Z,27.60
2024-01-06T23:11:00.537Z,23.57
2024-01-06T23:13:27.581Z,23.60
2024-01-06T23:15:56.672Z,22.97
2024-01-06T23:18:24.453Z,21.97
2024-01-06T23:20:51.738Z,21.83
2024-01-06T23:23:18.824Z,19.23
2024-01-06T23:25:45.862Z,18.87
2024-01-06T23:28:12.993Z,18.77
2024-01-06T23:30:40.186Z,24.83
2024-01-06T23:33:07.457Z,18.80
2024-01-06T23:35:34.564Z,20.73
2024-01-06T23:38:01.644Z,19.90
2024-01-06T23:40:28.714Z,22.43
2024-01-06T23:42:56.106Z,20.97
2024-01-06T23:45:23.608Z,20.70
2024-01-06T23:47:54.231Z,20.53
2024-01-06T23:50:21.482Z,20.90
2024-01-06T23:52:48.561Z,21.40
2024-01-06T23:55:16.309Z,20.03
2024-01-06T23:57:43.430Z,20.90
